createdAt,value
2023-04-29T00:00:09.855Z,10.82
2023-04-29T00:02:38.346Z,10.66
2023-04-29T00:05:07.302Z,10.88
2023-04-29T00:07:36.482Z,10.76
2023-04-29T00:10:04.719Z,10.99
2023-04-29T00:12:33.457Z,11.05
2023-04-29T00:15:03.012Z,10.49
2023-04-29T00:17:32.215Z,10.68
2023-04-29T00:19:59.934Z,10.61
2023-04-29T00:22:27.965Z,10.97
2023-04-29T00:24:55.707Z,10.74
2023-04-29T00:27:23.420Z,10.87
2023-04-29T00:29:51.261Z,11.11
2023-04-29T00:32:19.120Z,11.11
2023-04-29T00:34:48.433Z,11.00
2023-04-29T00:37:16.328Z,10.93
2023-04-29T00:39:44.073Z,11.00
2023-04-29T00:42:12.822Z,11.09
2023-04-29T00:44:40.918Z,11.14
2023-04-29T00:47:11.430Z,11.70
2023-04-29T00:49:39.784Z,11.19
2023-04-29T00:52:09.207Z,11.17
2023-04-29T00:54:38.082Z,10.86
2023-04-29T00:57:07.258Z,10.70
2023-04-29T00:59:35.056Z,10.91
2023-04-29T01:02:04.017Z,10.63
2023-04-29T01:04:31.960Z,10.46
2023-04-29T01:07:06.332Z,11.09
2023-04-29T01:09:48.948Z,10.61
2023-04-29T01:12:22.777Z,10.53
2023-04-29T01:15:02.834Z,10.66
2023-04-29T01:17:37.454Z,10.79
2023-04-29T01:20:07.891Z,10.70
2023-04-29T01:22:35.641Z,10.31
2023-04-29T01:25:05.939Z,10.81
2023-04-29T01:27:38.534Z,10.29
2023-04-29T01:30:17.615Z,10.40
2023-04-29T01:32:54.647Z,10.83
2023-04-29T01:35:35.203Z,10.87
2023-04-29T01:38:14.955Z,10.26
2023-04-29T01:40:49.974Z,10.27
2023-04-29T01:43:19.381Z,10.60
2023-04-29T01:45:47.198Z,10.64
2023-04-29T01:48:15.807Z,10.36
2023-04-29T01:50:43.859Z,10.50
2023-04-29T01:53:11.579Z,11.16
2023-04-29T01:55:39.326Z,10.75
2023-04-29T01:58:08.562Z,11.05
2023-04-29T02:00:36.500Z,10.31
2023-04-29T02:03:04.274Z,10.57
2023-04-29T02:05:34.044Z,10.78
2023-04-29T02:08:02.678Z,10.13
2023-04-29T02:10:30.867Z,10.19
2023-04-29T02:12:58.611Z,10.67
2023-04-29T02:15:29.420Z,10.56
2023-04-29T02:17:57.154Z,10.60
2023-04-29T02:20:24.887Z,10.30
2023-04-29T02:22:52.631Z,10.58
2023-04-29T02:25:20.384Z,10.94
2023-04-29T02:27:48.096Z,10.76
2023-04-29T02:30:15.858Z,10.53
2023-04-29T02:32:44.970Z,10.75
2023-04-29T02:35:12.743Z,10.62
2023-04-29T02:37:40.466Z,10.73
2023-04-29T02:40:09.493Z,10.78
2023-04-29T02:42:37.988Z,10.46
2023-04-29T02:45:06.696Z,10.31
2023-04-29T02:47:34.467Z,10.58
2023-04-29T02:50:04.762Z,10.73
2023-04-29T02:52:32.607Z,10.36
2023-04-29T02:55:00.306Z,10.45
2023-04-29T02:57:29.602Z,10.67
2023-04-29T02:59:57.444Z,10.33
2023-04-29T03:02:25.306Z,10.38
2023-04-29T03:04:53.367Z,10.54
2023-04-29T03:07:22.675Z,10.72
2023-04-29T03:09:50.709Z,10.71
2023-04-29T03:12:18.568Z,10.78
2023-04-29T03:14:46.269Z,10.72
2023-04-29T03:17:14.130Z,10.87
2023-04-29T03:19:41.978Z,10.41
2023-04-29T03:22:10.600Z,10.41
2023-04-29T03:24:39.853Z,10.23
2023-04-29T03:27:07.579Z,10.58
2023-04-29T03:29:35.328Z,10.42
2023-04-29T03:32:03.111Z,10.57
2023-04-29T03:34:31.315Z,10.42
2023-04-29T03:36:59.073Z,10.21
2023-04-29T03:39:28.238Z,10.49
2023-04-29T03:41:57.326Z,10.48
2023-04-29T03:44:25.137Z,10.62
2023-04-29T03:46:52.938Z,11.12
2023-04-29T03:49:20.665Z,11.02
2023-04-29T03:51:48.489Z,10.70
2023-04-29T03:54:16.218Z,10.53
2023-04-29T03:56:44.419Z,10.79
2023-04-29T03:59:13.506Z,11.20
2023-04-29T04:01:41.287Z,10.73
2023-04-29T04:04:09.159Z,10.70
2023-04-29T04:06:37.075Z,11.23
2023-04-29T04:09:04.946Z,11.30
2023-04-29T04:11:32.661Z,10.69
2023-04-29T04:14:00.622Z,10.75
2023-04-29T04:16:29.717Z,10.95
2023-04-29T04:18:57.445Z,10.91
2023-04-29T04:21:25.350Z,11.02
2023-04-29T04:23:53.278Z,10.94
2023-04-29T04:26:21.632Z,11.24
2023-04-29T04:28:49.527Z,11.34
2023-04-29T04:31:17.332Z,10.97
2023-04-29T04:33:46.448Z,11.28
2023-04-29T04:36:14.199Z,11.29
2023-04-29T04:38:41.918Z,10.93
2023-04-29T04:41:09.698Z,10.84
2023-04-29T04:43:37.467Z,10.80
2023-04-29T04:46:11.799Z,10.68
2023-04-29T04:48:39.636Z,11.15
2023-04-29T04:51:11.934Z,11.16
2023-04-29T04:53:40.389Z,11.07
2023-04-29T04:56:08.821Z,12.03
2023-04-29T04:58:36.596Z,11.83
2023-04-29T05:01:04.421Z,11.70
2023-04-29T05:03:32.417Z,11.96
2023-04-29T05:06:01.441Z,11.68
2023-04-29T05:08:30.547Z,11.85
2023-04-29T05:10:58.638Z,11.82
2023-04-29T05:13:26.866Z,11.86
2023-04-29T05:15:54.620Z,11.50
2023-04-29T05:18:22.384Z,11.31
2023-04-29T05:20:50.135Z,12.07
2023-04-29T05:23:17.953Z,11.80
2023-04-29T05:25:47.092Z,12.02
2023-04-29T05:28:14.863Z,11.76
2023-04-29T05:30:43.846Z,11.32
2023-04-29T05:33:12.066Z,11.51
2023-04-29T05:35:39.844Z,11.44
2023-04-29T05:38:07.568Z,11.72
2023-04-29T05:40:35.373Z,11.20
2023-04-29T05:43:04.492Z,11.36
2023-04-29T05:45:32.206Z,12.27
2023-04-29T05:47:59.969Z,11.20
2023-04-29T05:50:27.733Z,11.63
2023-04-29T05:52:56.737Z,11.58
2023-04-29T05:55:25.063Z,12.51
2023-04-29T05:57:52.802Z,12.78
2023-04-29T06:00:22.273Z,12.59
2023-04-29T06:02:58.034Z,13.09
2023-04-29T06:05:27.918Z,13.41
2023-04-29T06:07:56.040Z,13.29
2023-04-29T06:10:23.795Z,13.20
2023-04-29T06:12:51.914Z,13.43
2023-04-29T06:15:21.087Z,12.51
2023-04-29T06:17:49.583Z,12.13
2023-04-29T06:20:18.258Z,11.91
2023-04-29T06:22:46.296Z,13.11
2023-04-29T06:25:14.186Z,13.37
2023-04-29T06:27:42.073Z,13.81
2023-04-29T06:30:11.542Z,13.65
2023-04-29T06:32:41.222Z,13.85
2023-04-29T06:35:09.754Z,13.81
2023-04-29T06:37:38.254Z,13.96
2023-04-29T06:40:07.525Z,14.27
2023-04-29T06:42:35.280Z,13.55
2023-04-29T06:45:03.350Z,12.99
2023-04-29T06:47:31.110Z,12.80
2023-04-29T06:50:00.214Z,12.30
2023-04-29T06:52:27.946Z,12.30
2023-04-29T06:54:55.666Z,12.50
2023-04-29T06:57:23.405Z,12.85
2023-04-29T06:59:51.484Z,12.67
2023-04-29T07:02:19.496Z,12.89
2023-04-29T07:04:49.057Z,13.03
2023-04-29T07:07:18.247Z,13.47
2023-04-29T07:09:46.046Z,12.72
2023-04-29T07:12:13.771Z,13.29
2023-04-29T07:14:41.961Z,12.97
2023-04-29T07:17:10.945Z,13.58
2023-04-29T07:19:40.505Z,13.48
2023-04-29T07:22:08.240Z,14.17
2023-04-29T07:24:37.304Z,13.36
2023-04-29T07:27:05.354Z,12.96
2023-04-29T07:29:34.168Z,12.69
2023-04-29T07:32:01.898Z,13.29
2023-04-29T07:34:29.636Z,13.65
2023-04-29T07:36:57.416Z,13.93
2023-04-29T07:39:25.469Z,14.34
2023-04-29T07:41:54.532Z,13.87
2023-04-29T07:44:22.434Z,13.81
2023-04-29T07:46:50.164Z,13.25
2023-04-29T07:49:17.894Z,13.64
2023-04-29T07:51:45.780Z,13.54
2023-04-29T07:54:13.527Z,13.36
2023-04-29T07:56:41.249Z,13.00
2023-04-29T07:59:10.323Z,13.26
2023-04-29T08:01:38.515Z,13.77
2023-04-29T08:04:07.566Z,13.17
2023-04-29T08:06:36.127Z,12.71
2023-04-29T08:09:04.287Z,13.20
2023-04-29T08:11:32.078Z,13.47
2023-04-29T08:14:00.256Z,11.93
2023-04-29T08:16:29.597Z,12.92
2023-04-29T08:18:57.436Z,13.10
2023-04-29T08:21:25.424Z,13.31
2023-04-29T08:23:53.520Z,13.31
2023-04-29T08:26:24.023Z,13.11
2023-04-29T08:28:51.883Z,13.62
2023-04-29T08:31:19.775Z,13.57
2023-04-29T08:33:49.272Z,13.08
2023-04-29T08:36:17.029Z,13.23
2023-04-29T08:38:44.771Z,13.24
2023-04-29T08:41:15.323Z,13.02
2023-04-29T08:43:43.128Z,13.77
2023-04-29T08:46:11.899Z,13.53
2023-04-29T08:48:44.212Z,13.85
2023-04-29T08:51:15.329Z,14.07
2023-04-29T08:53:43.091Z,13.60
2023-04-29T08:56:17.066Z,13.83
2023-04-29T08:58:46.528Z,13.49
2023-04-29T09:01:15.406Z,12.90
2023-04-29T09:03:51.178Z,14.25
2023-04-29T09:06:21.529Z,13.95
2023-04-29T09:08:49.562Z,14.13
2023-04-29T09:11:17.768Z,13.38
2023-04-29T09:13:45.618Z,14.15
2023-04-29T09:16:13.991Z,13.65
2023-04-29T09:18:46.774Z,14.36
2023-04-29T09:21:16.089Z,14.78
2023-04-29T09:23:45.782Z,14.56
2023-04-29T09:26:13.689Z,14.17
2023-04-29T09:28:43.758Z,14.63
2023-04-29T09:31:12.657Z,14.41
2023-04-29T09:33:54.599Z,14.78
2023-04-29T09:36:41.562Z,14.42
2023-04-29T09:39:15.155Z,14.35
2023-04-29T09:41:57.917Z,14.88
2023-04-29T09:44:26.858Z,15.26
2023-04-29T09:46:58.344Z,14.99
2023-04-29T09:49:28.337Z,15.62
2023-04-29T09:51:57.929Z,14.95
2023-04-29T09:54:29.533Z,15.52
2023-04-29T09:56:59.068Z,16.56
2023-04-29T09:59:27.430Z,16.79
2023-04-29T10:01:56.820Z,17.01
2023-04-29T10:04:26.978Z,17.76
2023-04-29T10:06:56.522Z,18.07
2023-04-29T10:09:24.998Z,18.23
2023-04-29T10:11:55.044Z,18.03
2023-04-29T10:14:24.813Z,17.16
2023-04-29T10:17:00.516Z,17.41
2023-04-29T10:19:36.216Z,16.13
2023-04-29T10:22:11.044Z,17.38
2023-04-29T10:24:40.104Z,17.23
2023-04-29T10:27:12.382Z,18.44
2023-04-29T10:29:41.526Z,17.81
2023-04-29T10:32:10.969Z,17.80
2023-04-29T10:34:40.687Z,17.57
2023-04-29T10:37:10.994Z,18.58
2023-04-29T10:39:46.933Z,18.43
2023-04-29T10:42:31.840Z,18.75
2023-04-29T10:45:18.572Z,18.93
2023-04-29T10:48:11.874Z,18.16
2023-04-29T10:51:04.397Z,19.12
2023-04-29T10:53:32.401Z,18.43
2023-04-29T10:56:05.610Z,18.47
2023-04-29T10:58:47.606Z,19.60
2023-04-29T11:01:16.949Z,19.58
2023-04-29T11:03:55.538Z,18.86
2023-04-29T11:06:25.075Z,18.96
2023-04-29T11:09:03.582Z,19.08
2023-04-29T11:12:05.728Z,19.52
2023-04-29T11:14:39.845Z,19.27
2023-04-29T11:17:10.848Z,19.49
2023-04-29T11:19:42.816Z,19.61
2023-04-29T11:22:13.909Z,19.94
2023-04-29T11:24:56.996Z,20.14
2023-04-29T11:27:26.496Z,20.51
2023-04-29T11:29:58.696Z,21.14
2023-04-29T11:32:27.394Z,20.93
2023-04-29T11:34:55.786Z,20.05
2023-04-29T11:37:26.396Z,19.95
2023-04-29T11:40:00.543Z,19.48
2023-04-29T11:42:28.766Z,19.56
2023-04-29T11:44:59.505Z,19.75
2023-04-29T11:47:29.324Z,20.52
2023-04-29T11:50:04.929Z,20.15
2023-04-29T11:52:33.193Z,20.69
2023-04-29T11:55:01.089Z,19.14
2023-04-29T11:57:28.918Z,20.70
2023-04-29T11:59:58.494Z,20.34
2023-04-29T12:02:30.815Z,20.66
2023-04-29T12:05:01.224Z,20.76
2023-04-29T12:07:29.348Z,21.41
2023-04-29T12:09:57.891Z,20.70
2023-04-29T12:12:27.576Z,20.54
2023-04-29T12:14:56.067Z,20.07
2023-04-29T12:17:25.701Z,21.15
2023-04-29T12:19:53.550Z,20.10
2023-04-29T12:22:21.745Z,20.78
2023-04-29T12:24:50.853Z,20.17
2023-04-29T12:27:19.042Z,20.23
2023-04-29T12:29:47.867Z,19.43
2023-04-29T12:32:18.491Z,20.50
2023-04-29T12:34:47.937Z,20.65
2023-04-29T12:37:16.394Z,20.63
2023-04-29T12:39:44.124Z,21.65
2023-04-29T12:42:16.898Z,21.60
2023-04-29T12:44:47.512Z,21.64
2023-04-29T12:47:16.322Z,20.98
2023-04-29T12:49:44.791Z,20.68
2023-04-29T12:52:14.275Z,20.23
2023-04-29T12:54:43.807Z,19.51
2023-04-29T12:57:12.870Z,19.49
2023-04-29T12:59:41.258Z,20.02
2023-04-29T13:02:09.472Z,20.10
2023-04-29T13:04:38.106Z,20.71
2023-04-29T13:07:07.268Z,20.11
2023-04-29T13:09:38.129Z,20.63
2023-04-29T13:12:09.573Z,21.40
2023-04-29T13:14:37.452Z,21.09
2023-04-29T13:17:05.235Z,22.01
2023-04-29T13:19:48.204Z,20.75
2023-04-29T13:22:19.092Z,20.45
2023-04-29T13:24:48.370Z,20.92
2023-04-29T13:27:16.138Z,19.80
2023-04-29T13:29:43.950Z,20.33
2023-04-29T13:32:11.997Z,20.64
2023-04-29T13:34:43.148Z,21.12
2023-04-29T13:37:11.006Z,21.07
2023-04-29T13:39:38.983Z,20.67
2023-04-29T13:42:08.979Z,20.49
2023-04-29T13:44:50.893Z,20.78
2023-04-29T13:47:25.748Z,21.33
2023-04-29T13:50:33.966Z,20.80
2023-04-29T13:58:28.926Z,20.89
2023-04-29T14:01:05.274Z,20.32
2023-04-29T14:03:20.783Z,21.14
2023-04-29T14:05:48.676Z,20.87
2023-04-29T14:08:16.477Z,21.48
2023-04-29T14:10:44.229Z,21.15
2023-04-29T14:13:13.446Z,21.15
2023-04-29T14:15:41.248Z,20.03
2023-04-29T14:18:09.844Z,19.99
2023-04-29T14:20:37.573Z,19.96
2023-04-29T14:23:05.286Z,20.56
2023-04-29T14:25:33.959Z,19.87
2023-04-29T14:28:01.838Z,20.92
2023-04-29T14:30:31.221Z,20.30
2023-04-29T14:32:59.054Z,21.09
2023-04-29T14:35:26.785Z,21.76
2023-04-29T14:37:54.502Z,21.65
2023-04-29T14:40:22.408Z,20.92
2023-04-29T14:42:51.206Z,19.98
2023-04-29T14:45:18.952Z,20.08
2023-04-29T14:47:48.160Z,20.49
2023-04-29T14:50:16.241Z,20.27
2023-04-29T14:52:43.957Z,20.78
2023-04-29T14:55:11.742Z,20.55
2023-04-29T14:57:39.466Z,20.87
2023-04-29T15:00:08.784Z,20.10
2023-04-29T15:02:36.590Z,21.16
2023-04-29T15:05:06.145Z,21.29
2023-04-29T15:07:33.955Z,20.60
2023-04-29T15:10:01.840Z,20.29
2023-04-29T15:12:29.592Z,19.88
2023-04-29T15:14:57.335Z,20.22
2023-04-29T15:17:25.564Z,18.76
2023-04-29T15:19:53.381Z,19.39
2023-04-29T15:22:22.494Z,20.33
2023-04-29T15:24:52.131Z,20.03
2023-04-29T15:27:19.889Z,21.20
2023-04-29T15:29:47.913Z,20.49
2023-04-29T15:32:16.050Z,20.82
2023-04-29T15:34:43.860Z,20.44
2023-04-29T15:37:11.558Z,19.86
2023-04-29T15:39:40.820Z,19.78
2023-04-29T15:42:09.536Z,18.72
2023-04-29T15:44:37.269Z,19.86
2023-04-29T15:47:04.983Z,20.09
2023-04-29T15:49:32.827Z,19.28
2023-04-29T15:52:01.012Z,20.01
2023-04-29T15:54:28.731Z,20.42
2023-04-29T15:56:58.588Z,20.26
2023-04-29T15:59:26.447Z,19.60
2023-04-29T16:01:54.204Z,18.80
2023-04-29T16:04:22.051Z,19.42
2023-04-29T16:06:49.875Z,18.75
2023-04-29T16:09:17.579Z,19.58
2023-04-29T16:11:45.856Z,20.02
2023-04-29T16:14:14.964Z,19.69
2023-04-29T16:16:42.816Z,18.23
2023-04-29T16:19:10.586Z,18.45
2023-04-29T16:21:38.753Z,19.44
2023-04-29T16:24:07.830Z,19.75
2023-04-29T16:26:36.873Z,17.94
2023-04-29T16:29:04.963Z,19.43
2023-04-29T16:31:34.201Z,18.06
2023-04-29T16:34:03.204Z,18.09
2023-04-29T16:36:31.132Z,17.65
2023-04-29T16:38:59.074Z,18.50
2023-04-29T16:41:27.118Z,18.61
2023-04-29T16:43:54.863Z,18.83
2023-04-29T16:46:22.761Z,18.54
2023-04-29T16:48:56.573Z,18.94
2023-04-29T16:51:26.295Z,18.71
2023-04-29T16:53:54.257Z,17.82
2023-04-29T16:56:22.733Z,17.01
2023-04-29T16:58:50.522Z,17.00
2023-04-29T17:01:19.694Z,16.63
2023-04-29T17:03:48.136Z,16.74
2023-04-29T17:06:17.436Z,17.14
2023-04-29T17:08:45.720Z,16.46
2023-04-29T17:11:13.704Z,16.60
2023-04-29T17:13:41.473Z,16.33
2023-04-29T17:16:09.433Z,16.26
2023-04-29T17:18:37.645Z,16.81
2023-04-29T17:21:05.828Z,15.42
2023-04-29T17:23:34.951Z,16.08
2023-04-29T17:26:03.079Z,15.97
2023-04-29T17:28:30.839Z,16.29
2023-04-29T17:31:01.087Z,17.29
2023-04-29T17:33:34.065Z,16.00
2023-04-29T17:36:02.273Z,15.27
2023-04-29T17:38:30.231Z,15.82
2023-04-29T17:40:59.341Z,15.66
2023-04-29T17:43:27.300Z,15.06
2023-04-29T17:45:55.134Z,15.35
2023-04-29T17:48:22.913Z,15.04
2023-04-29T17:50:50.669Z,15.18
2023-04-29T17:53:18.394Z,14.45
2023-04-29T17:55:46.233Z,15.20
2023-04-29T17:58:15.366Z,15.17
2023-04-29T18:00:43.137Z,15.46
2023-04-29T18:03:10.979Z,14.89
2023-04-29T18:05:38.847Z,14.16
2023-04-29T18:08:06.771Z,13.35
2023-04-29T18:10:34.463Z,14.15
2023-04-29T18:13:03.283Z,13.95
2023-04-29T18:15:32.516Z,14.04
2023-04-29T18:18:00.278Z,13.74
2023-04-29T18:20:28.069Z,13.25
2023-04-29T18:22:55.945Z,13.66
2023-04-29T18:25:23.720Z,13.72
2023-04-29T18:27:56.963Z,13.33
2023-04-29T18:30:27.900Z,13.48
2023-04-29T18:32:57.203Z,12.64
2023-04-29T18:35:25.191Z,12.96
2023-04-29T18:37:52.941Z,13.21
2023-04-29T18:40:20.781Z,13.36
2023-04-29T18:42:48.900Z,13.11
2023-04-29T18:45:16.639Z,12.86
2023-04-29T18:47:44.416Z,12.66
2023-04-29T18:50:14.095Z,12.77
2023-04-29T18:52:42.600Z,12.80
2023-04-29T18:55:11.071Z,12.34
2023-04-29T18:57:38.813Z,12.29
2023-04-29T19:00:08.586Z,12.60
2023-04-29T19:02:37.294Z,12.43
2023-04-29T19:05:09.241Z,12.24
2023-04-29T19:07:38.826Z,12.10
2023-04-29T19:10:07.642Z,12.23
2023-04-29T19:12:35.452Z,12.38
2023-04-29T19:15:03.176Z,12.66
2023-04-29T19:17:30.938Z,12.11
2023-04-29T19:19:58.661Z,12.81
2023-04-29T19:22:27.706Z,12.17
2023-04-29T19:24:56.846Z,11.87
2023-04-29T19:27:24.629Z,11.85
2023-04-29T19:29:52.513Z,12.35
2023-04-29T19:32:20.830Z,12.15
2023-04-29T19:34:49.020Z,11.68
2023-04-29T19:37:16.784Z,11.87
2023-04-29T19:39:44.537Z,11.84
2023-04-29T19:42:13.676Z,11.68
2023-04-29T19:44:41.432Z,11.17
2023-04-29T19:47:09.179Z,11.90
2023-04-29T19:49:37.795Z,11.70
2023-04-29T19:52:06.800Z,11.25
2023-04-29T19:54:34.975Z,12.11
2023-04-29T19:57:03.140Z,11.91
2023-04-29T19:59:32.227Z,10.98
2023-04-29T20:02:00.025Z,11.54
2023-04-29T20:04:27.802Z,11.50
2023-04-29T20:06:55.572Z,11.77
2023-04-29T20:09:23.298Z,11.21
2023-04-29T20:11:51.078Z,11.30
2023-04-29T20:14:18.802Z,10.92
2023-04-29T20:16:48.031Z,11.45
2023-04-29T20:19:15.852Z,10.90
2023-04-29T20:21:43.604Z,11.26
2023-04-29T20:24:11.320Z,11.07
2023-04-29T20:26:39.060Z,11.12
2023-04-29T20:29:06.812Z,11.20
2023-04-29T20:31:34.611Z,10.83
2023-04-29T20:34:03.743Z,11.30
2023-04-29T20:36:31.897Z,11.15
2023-04-29T20:38:59.623Z,11.63
2023-04-29T20:41:29.060Z,10.59
2023-04-29T20:43:58.559Z,10.81
2023-04-29T20:46:26.386Z,10.87
2023-04-29T20:48:54.129Z,11.28
2023-04-29T20:51:23.229Z,11.02
2023-04-29T20:53:51.151Z,10.85
2023-04-29T20:56:18.919Z,10.91
2023-04-29T20:58:46.651Z,11.10
2023-04-29T21:01:14.544Z,10.78
2023-04-29T21:03:42.289Z,10.83
2023-04-29T21:06:10.041Z,10.84
2023-04-29T21:08:39.230Z,11.04
2023-04-29T21:11:07.803Z,10.72
2023-04-29T21:13:36.233Z,10.98
2023-04-29T21:16:04.353Z,10.96
2023-04-29T21:18:32.104Z,11.10
2023-04-29T21:20:59.819Z,11.37
2023-04-29T21:23:27.550Z,10.71
2023-04-29T21:25:56.664Z,10.85
2023-04-29T21:28:24.412Z,10.55
2023-04-29T21:30:52.153Z,10.45
2023-04-29T21:33:19.973Z,10.58
2023-04-29T21:35:51.284Z,10.74
2023-04-29T21:38:19.055Z,10.37
2023-04-29T21:40:48.499Z,10.69
2023-04-29T21:43:18.535Z,11.09
2023-04-29T21:45:46.698Z,10.53
2023-04-29T21:48:15.996Z,11.12
2023-04-29T21:50:44.624Z,10.52
2023-04-29T21:53:15.808Z,10.64
2023-04-29T21:55:44.281Z,10.70
2023-04-29T21:58:12.102Z,11.02
2023-04-29T22:00:47.971Z,10.43
2023-04-29T22:03:16.115Z,10.74
2023-04-29T22:05:44.007Z,10.74
2023-04-29T22:08:11.754Z,10.55
2023-04-29T22:10:41.426Z,9.89
2023-04-29T22:13:09.296Z,10.63
2023-04-29T22:15:37.239Z,10.23
2023-04-29T22:18:06.757Z,10.51
2023-04-29T22:20:34.584Z,10.86
2023-04-29T22:23:02.304Z,10.47
2023-04-29T22:25:30.099Z,10.72
2023-04-29T22:27:57.842Z,10.56
2023-04-29T22:30:25.592Z,10.11
2023-04-29T22:32:53.360Z,9.87
2023-04-29T22:35:22.732Z,10.23
2023-04-29T22:37:50.494Z,10.16
2023-04-29T22:40:18.464Z,9.67
2023-04-29T22:42:46.350Z,10.11
2023-04-29T22:45:14.077Z,10.14
2023-04-29T22:47:43.122Z,10.14
2023-04-29T22:50:11.641Z,9.99
2023-04-29T22:52:41.116Z,10.01
2023-04-29T22:55:09.707Z,10.02
2023-04-29T22:57:37.502Z,9.51
2023-04-29T23:00:07.137Z,9.98
2023-04-29T23:02:34.926Z,10.48
2023-04-29T23:05:03.560Z,9.88
2023-04-29T23:07:31.427Z,9.96
2023-04-29T23:10:00.561Z,10.46
2023-04-29T23:12:28.324Z,10.17
2023-04-29T23:14:56.600Z,10.48
2023-04-29T23:17:24.439Z,10.05
2023-04-29T23:19:52.547Z,10.07
2023-04-29T23:22:20.531Z,10.46
2023-04-29T23:24:48.757Z,9.83
2023-04-29T23:27:17.871Z,9.90
2023-04-29T23:29:45.571Z,9.99
2023-04-29T23:32:13.272Z,10.12
2023-04-29T23:34:41.018Z,9.64
2023-04-29T23:37:09.043Z,9.71
2023-04-29T23:39:36.754Z,9.94
2023-04-29T23:42:04.523Z,9.91
2023-04-29T23:44:33.859Z,10.06
2023-04-29T23:47:01.596Z,9.81
2023-04-29T23:49:29.561Z,9.90
2023-04-29T23:51:57.339Z,10.21
2023-04-29T23:54:25.110Z,9.75
2023-04-29T23:56:52.836Z,9.86
2023-04-29T23:59:20.608Z,9.69
